sensor_id;sensor_type;location;lat;lon;timestamp;temperature;humidity
14585;DHT22;7379;51.506;11.876;2022-10-16T00:00:48;16.50;73.70
14585;DHT22;7379;51.506;11.876;2022-10-16T00:03:15;16.50;73.70
14585;DHT22;7379;51.506;11.876;2022-10-16T00:05:43;16.50;73.70
14585;DHT22;7379;51.506;11.876;2022-10-16T00:08:12;16.50;73.70
14585;DHT22;7379;51.506;11.876;2022-10-16T00:10:39;16.50;73.70
14585;DHT22;7379;51.506;11.876;2022-10-16T00:13:06;16.50;73.60
14585;DHT22;7379;51.506;11.876;2022-10-16T00:15:34;16.50;73.70
14585;DHT22;7379;51.506;11.876;2022-10-16T00:18:04;16.50;73.50
14585;DHT22;7379;51.506;11.876;2022-10-16T00:20:34;16.50;73.50
14585;DHT22;7379;51.506;11.876;2022-10-16T00:23:02;16.50;73.40
14585;DHT22;7379;51.506;11.876;2022-10-16T00:25:29;16.40;73.40
14585;DHT22;7379;51.506;11.876;2022-10-16T00:27:58;16.50;73.40
14585;DHT22;7379;51.506;11.876;2022-10-16T00:30:25;16.40;74.10
14585;DHT22;7379;51.506;11.876;2022-10-16T00:32:53;16.40;73.30
14585;DHT22;7379;51.506;11.876;2022-10-16T00:35:21;16.40;73.20
14585;DHT22;7379;51.506;11.876;2022-10-16T00:37:47;16.40;73.20
14585;DHT22;7379;51.506;11.876;2022-10-16T00:40:14;16.40;73.20
14585;DHT22;7379;51.506;11.876;2022-10-16T00:42:41;16.40;73.10
14585;DHT22;7379;51.506;11.876;2022-10-16T00:45:09;16.40;73.10
14585;DHT22;7379;51.506;11.876;2022-10-16T00:47:38;16.40;73.30
14585;DHT22;7379;51.506;11.876;2022-10-16T00:50:09;16.40;73.20
14585;DHT22;7379;51.506;11.876;2022-10-16T00:52:41;16.40;73.20
14585;DHT22;7379;51.506;11.876;2022-10-16T00:55:09;16.40;73.30
14585;DHT22;7379;51.506;11.876;2022-10-16T00:57:37;16.40;73.30
14585;DHT22;7379;51.506;11.876;2022-10-16T01:00:07;16.40;73.30
14585;DHT22;7379;51.506;11.876;2022-10-16T01:02:34;16.40;73.20
14585;DHT22;7379;51.506;11.876;2022-10-16T01:05:02;16.40;73.30
14585;DHT22;7379;51.506;11.876;2022-10-16T01:07:35;16.40;73.40
14585;DHT22;7379;51.506;11.876;2022-10-16T01:10:20;16.40;73.40
14585;DHT22;7379;51.506;11.876;2022-10-16T01:12:52;16.40;73.40
14585;DHT22;7379;51.506;11.876;2022-10-16T01:15:25;16.40;73.40
14585;DHT22;7379;51.506;11.876;2022-10-16T01:17:57;16.40;73.40
14585;DHT22;7379;51.506;11.876;2022-10-16T01:20:29;16.40;73.50
14585;DHT22;7379;51.506;11.876;2022-10-16T01:23:04;16.30;73.30
14585;DHT22;7379;51.506;11.876;2022-10-16T01:25:59;16.30;73.40
14585;DHT22;7379;51.506;11.876;2022-10-16T01:28:36;16.40;73.40
14585;DHT22;7379;51.506;11.876;2022-10-16T01:31:06;16.40;73.40
14585;DHT22;7379;51.506;11.876;2022-10-16T01:33:37;16.30;73.40
14585;DHT22;7379;51.506;11.876;2022-10-16T01:36:10;16.40;73.50
14585;DHT22;7379;51.506;11.876;2022-10-16T01:38:39;16.30;73.40
14585;DHT22;7379;51.506;11.876;2022-10-16T01:41:09;16.30;73.50
14585;DHT22;7379;51.506;11.876;2022-10-16T01:43:40;16.30;73.40
14585;DHT22;7379;51.506;11.876;2022-10-16T01:46:09;16.30;73.40
14585;DHT22;7379;51.506;11.876;2022-10-16T01:48:37;16.30;73.40
14585;DHT22;7379;51.506;11.876;2022-10-16T01:51:07;16.30;73.30
14585;DHT22;7379;51.506;11.876;2022-10-16T01:53:36;16.30;73.40
14585;DHT22;7379;51.506;11.876;2022-10-16T01:56:07;16.30;73.40
14585;DHT22;7379;51.506;11.876;2022-10-16T01:58:39;16.20;73.30
14585;DHT22;7379;51.506;11.876;2022-10-16T02:01:10;16.30;73.40
14585;DHT22;7379;51.506;11.876;2022-10-16T02:03:39;16.30;73.60
14585;DHT22;7379;51.506;11.876;2022-10-16T02:06:07;16.20;73.60
14585;DHT22;7379;51.506;11.876;2022-10-16T02:08:34;16.30;73.80
14585;DHT22;7379;51.506;11.876;2022-10-16T02:11:01;16.20;73.70
14585;DHT22;7379;51.506;11.876;2022-10-16T02:13:33;16.20;73.60
14585;DHT22;7379;51.506;11.876;2022-10-16T02:16:02;16.30;73.70
14585;DHT22;7379;51.506;11.876;2022-10-16T02:18:29;16.30;73.70
14585;DHT22;7379;51.506;11.876;2022-10-16T02:21:00;16.30;73.80
14585;DHT22;7379;51.506;11.876;2022-10-16T02:23:34;16.30;73.80
14585;DHT22;7379;51.506;11.876;2022-10-16T02:26:03;16.20;73.60
14585;DHT22;7379;51.506;11.876;2022-10-16T02:28:38;16.20;73.50
14585;DHT22;7379;51.506;11.876;2022-10-16T02:31:10;16.20;73.50
14585;DHT22;7379;51.506;11.876;2022-10-16T02:33:39;16.20;73.50
14585;DHT22;7379;51.506;11.876;2022-10-16T02:36:07;16.20;73.50
14585;DHT22;7379;51.506;11.876;2022-10-16T02:38:34;16.20;73.50
14585;DHT22;7379;51.506;11.876;2022-10-16T02:41:02;16.20;73.50
14585;DHT22;7379;51.506;11.876;2022-10-16T02:43:29;16.20;73.40
14585;DHT22;7379;51.506;11.876;2022-10-16T02:45:56;16.20;73.40
14585;DHT22;7379;51.506;11.876;2022-10-16T02:48:24;16.20;73.40
14585;DHT22;7379;51.506;11.876;2022-10-16T02:50:51;16.20;73.50
14585;DHT22;7379;51.506;11.876;2022-10-16T02:53:18;16.20;73.50
14585;DHT22;7379;51.506;11.876;2022-10-16T02:55:45;16.20;73.50
14585;DHT22;7379;51.506;11.876;2022-10-16T02:58:11;16.20;73.50
14585;DHT22;7379;51.506;11.876;2022-10-16T03:00:38;16.20;73.50
14585;DHT22;7379;51.506;11.876;2022-10-16T03:03:05;16.10;73.40
14585;DHT22;7379;51.506;11.876;2022-10-16T03:05:33;16.20;73.50
14585;DHT22;7379;51.506;11.876;2022-10-16T03:08:00;16.20;73.50
14585;DHT22;7379;51.506;11.876;2022-10-16T03:10:27;16.10;73.50
14585;DHT22;7379;51.506;11.876;2022-10-16T03:12:54;16.10;73.50
14585;DHT22;7379;51.506;11.876;2022-10-16T03:15:20;16.10;73.50
14585;DHT22;7379;51.506;11.876;2022-10-16T03:17:47;16.10;73.50
14585;DHT22;7379;51.506;11.876;2022-10-16T03:20:14;16.10;73.50
14585;DHT22;7379;51.506;11.876;2022-10-16T03:22:42;16.10;73.50
14585;DHT22;7379;51.506;11.876;2022-10-16T03:25:09;16.10;73.60
14585;DHT22;7379;51.506;11.876;2022-10-16T03:27:36;16.10;73.60
14585;DHT22;7379;51.506;11.876;2022-10-16T03:30:03;16.10;73.60
14585;DHT22;7379;51.506;11.876;2022-10-16T03:32:30;16.10;73.60
14585;DHT22;7379;51.506;11.876;2022-10-16T03:34:57;16.10;73.70
14585;DHT22;7379;51.506;11.876;2022-10-16T03:37:24;16.10;73.70
14585;DHT22;7379;51.506;11.876;2022-10-16T03:39:52;16.10;74.40
14585;DHT22;7379;51.506;11.876;2022-10-16T03:42:19;16.10;73.70
14585;DHT22;7379;51.506;11.876;2022-10-16T03:44:45;16.10;73.70
14585;DHT22;7379;51.506;11.876;2022-10-16T03:47:12;16.10;73.70
14585;DHT22;7379;51.506;11.876;2022-10-16T03:49:39;16.00;73.50
14585;DHT22;7379;51.506;11.876;2022-10-16T03:52:06;16.10;73.70
14585;DHT22;7379;51.506;11.876;2022-10-16T03:54:32;16.00;73.60
14585;DHT22;7379;51.506;11.876;2022-10-16T03:57:01;16.10;73.70
14585;DHT22;7379;51.506;11.876;2022-10-16T03:59:27;16.10;73.70
14585;DHT22;7379;51.506;11.876;2022-10-16T04:01:54;16.00;73.60
14585;DHT22;7379;51.506;11.876;2022-10-16T04:04:21;16.00;73.60
14585;DHT22;7379;51.506;11.876;2022-10-16T04:06:47;16.00;73.60
14585;DHT22;7379;51.506;11.876;2022-10-16T04:09:14;16.00;73.60
14585;DHT22;7379;51.506;11.876;2022-10-16T04:11:41;16.00;73.60
14585;DHT22;7379;51.506;11.876;2022-10-16T04:14:09;16.00;73.60
14585;DHT22;7379;51.506;11.876;2022-10-16T04:16:36;16.00;73.60
14585;DHT22;7379;51.506;11.876;2022-10-16T04:19:03;16.00;73.60
14585;DHT22;7379;51.506;11.876;2022-10-16T04:21:29;16.00;73.70
14585;DHT22;7379;51.506;11.876;2022-10-16T04:23:56;16.00;73.70
14585;DHT22;7379;51.506;11.876;2022-10-16T04:26:23;16.00;73.70
14585;DHT22;7379;51.506;11.876;2022-10-16T04:28:49;16.00;73.70
14585;DHT22;7379;51.506;11.876;2022-10-16T04:31:18;16.00;73.70
14585;DHT22;7379;51.506;11.876;2022-10-16T04:33:44;16.00;73.80
14585;DHT22;7379;51.506;11.876;2022-10-16T04:36:11;16.00;73.80
14585;DHT22;7379;51.506;11.876;2022-10-16T04:38:38;16.00;73.80
14585;DHT22;7379;51.506;11.876;2022-10-16T04:41:05;16.00;73.80
14585;DHT22;7379;51.506;11.876;2022-10-16T04:43:32;16.00;73.80
14585;DHT22;7379;51.506;11.876;2022-10-16T04:45:59;16.00;73.80
14585;DHT22;7379;51.506;11.876;2022-10-16T04:48:28;16.00;73.80
14585;DHT22;7379;51.506;11.876;2022-10-16T04:50:55;16.00;73.80
14585;DHT22;7379;51.506;11.876;2022-10-16T04:53:22;16.00;74.60
14585;DHT22;7379;51.506;11.876;2022-10-16T04:55:48;16.00;73.90
14585;DHT22;7379;51.506;11.876;2022-10-16T04:58:15;15.90;73.80
14585;DHT22;7379;51.506;11.876;2022-10-16T05:00:43;15.90;73.80
14585;DHT22;7379;51.506;11.876;2022-10-16T05:03:11;15.90;73.80
14585;DHT22;7379;51.506;11.876;2022-10-16T05:05:42;15.90;73.80
14585;DHT22;7379;51.506;11.876;2022-10-16T05:08:09;15.90;73.80
14585;DHT22;7379;51.506;11.876;2022-10-16T05:10:35;15.90;73.90
14585;DHT22;7379;51.506;11.876;2022-10-16T05:13:02;15.90;73.90
14585;DHT22;7379;51.506;11.876;2022-10-16T05:15:29;15.90;73.90
14585;DHT22;7379;51.506;11.876;2022-10-16T05:17:56;15.90;73.90
14585;DHT22;7379;51.506;11.876;2022-10-16T05:20:23;15.90;73.90
14585;DHT22;7379;51.506;11.876;2022-10-16T05:22:51;15.90;73.90
14585;DHT22;7379;51.506;11.876;2022-10-16T05:25:18;15.90;73.90
14585;DHT22;7379;51.506;11.876;2022-10-16T05:27:47;15.90;73.80
14585;DHT22;7379;51.506;11.876;2022-10-16T05:30:14;15.90;73.90
14585;DHT22;7379;51.506;11.876;2022-10-16T05:32:41;15.90;73.90
14585;DHT22;7379;51.506;11.876;2022-10-16T05:35:08;15.90;73.90
14585;DHT22;7379;51.506;11.876;2022-10-16T05:37:35;15.80;73.90
14585;DHT22;7379;51.506;11.876;2022-10-16T05:40:03;15.90;74.00
14585;DHT22;7379;51.506;11.876;2022-10-16T05:42:30;15.80;73.90
14585;DHT22;7379;51.506;11.876;2022-10-16T05:44:57;15.90;74.00
14585;DHT22;7379;51.506;11.876;2022-10-16T05:47:24;15.90;74.00
14585;DHT22;7379;51.506;11.876;2022-10-16T05:49:51;15.90;74.00
14585;DHT22;7379;51.506;11.876;2022-10-16T05:52:18;15.90;74.00
14585;DHT22;7379;51.506;11.876;2022-10-16T05:54:45;15.90;74.00
14585;DHT22;7379;51.506;11.876;2022-10-16T05:57:13;15.90;74.00
14585;DHT22;7379;51.506;11.876;2022-10-16T05:59:40;15.80;73.90
14585;DHT22;7379;51.506;11.876;2022-10-16T06:02:08;15.80;74.00
14585;DHT22;7379;51.506;11.876;2022-10-16T06:04:38;15.90;74.00
14585;DHT22;7379;51.506;11.876;2022-10-16T06:07:04;15.80;73.90
14585;DHT22;7379;51.506;11.876;2022-10-16T06:09:31;15.80;73.90
14585;DHT22;7379;51.506;11.876;2022-10-16T06:11:58;15.80;73.90
14585;DHT22;7379;51.506;11.876;2022-10-16T06:14:26;15.80;73.90
14585;DHT22;7379;51.506;11.876;2022-10-16T06:16:53;15.80;73.90
14585;DHT22;7379;51.506;11.876;2022-10-16T06:19:20;15.80;73.90
14585;DHT22;7379;51.506;11.876;2022-10-16T06:21:46;15.80;73.90
14585;DHT22;7379;51.506;11.876;2022-10-16T06:24:13;15.80;73.90
14585;DHT22;7379;51.506;11.876;2022-10-16T06:26:40;15.80;73.90
14585;DHT22;7379;51.506;11.876;2022-10-16T06:29:08;15.80;73.90
14585;DHT22;7379;51.506;11.876;2022-10-16T06:31:36;15.80;73.90
14585;DHT22;7379;51.506;11.876;2022-10-16T06:34:03;15.80;73.80
14585;DHT22;7379;51.506;11.876;2022-10-16T06:36:31;15.80;73.80
14585;DHT22;7379;51.506;11.876;2022-10-16T06:38:57;15.80;73.80
14585;DHT22;7379;51.506;11.876;2022-10-16T06:41:24;15.80;73.80
14585;DHT22;7379;51.506;11.876;2022-10-16T06:43:51;15.80;73.90
14585;DHT22;7379;51.506;11.876;2022-10-16T06:46:20;15.80;73.80
14585;DHT22;7379;51.506;11.876;2022-10-16T06:48:49;15.80;73.80
14585;DHT22;7379;51.506;11.876;2022-10-16T06:51:17;15.80;73.80
14585;DHT22;7379;51.506;11.876;2022-10-16T06:53:45;15.80;73.80
14585;DHT22;7379;51.506;11.876;2022-10-16T06:56:15;15.80;73.80
14585;DHT22;7379;51.506;11.876;2022-10-16T06:58:43;15.80;73.80
14585;DHT22;7379;51.506;11.876;2022-10-16T07:01:11;15.80;73.80
14585;DHT22;7379;51.506;11.876;2022-10-16T07:03:38;15.80;73.80
14585;DHT22;7379;51.506;11.876;2022-10-16T07:06:09;15.80;73.80
14585;DHT22;7379;51.506;11.876;2022-10-16T07:08:38;15.80;73.80
14585;DHT22;7379;51.506;11.876;2022-10-16T07:11:06;15.80;74.50
14585;DHT22;7379;51.506;11.876;2022-10-16T07:13:33;15.80;73.90
14585;DHT22;7379;51.506;11.876;2022-10-16T07:16:04;15.80;74.60
14585;DHT22;7379;51.506;11.876;2022-10-16T07:18:31;15.80;73.90
14585;DHT22;7379;51.506;11.876;2022-10-16T07:21:03;15.80;73.90
14585;DHT22;7379;51.506;11.876;2022-10-16T07:23:32;15.80;74.10
14585;DHT22;7379;51.506;11.876;2022-10-16T07:25:59;15.80;74.20
14585;DHT22;7379;51.506;11.876;2022-10-16T07:28:26;15.80;74.10
14585;DHT22;7379;51.506;11.876;2022-10-16T07:30:52;15.80;74.20
14585;DHT22;7379;51.506;11.876;2022-10-16T07:33:20;15.80;74.20
14585;DHT22;7379;51.506;11.876;2022-10-16T07:35:50;15.80;74.20
14585;DHT22;7379;51.506;11.876;2022-10-16T07:38:18;15.80;74.50
14585;DHT22;7379;51.506;11.876;2022-10-16T07:40:46;15.80;74.70
14585;DHT22;7379;51.506;11.876;2022-10-16T07:43:14;15.80;75.00
14585;DHT22;7379;51.506;11.876;2022-10-16T07:45:47;15.80;75.20
14585;DHT22;7379;51.506;11.876;2022-10-16T07:48:14;15.80;74.90
14585;DHT22;7379;51.506;11.876;2022-10-16T07:50:41;15.90;75.10
14585;DHT22;7379;51.506;11.876;2022-10-16T07:53:09;15.90;75.50
14585;DHT22;7379;51.506;11.876;2022-10-16T07:55:36;15.90;75.70
14585;DHT22;7379;51.506;11.876;2022-10-16T07:58:05;15.90;75.60
14585;DHT22;7379;51.506;11.876;2022-10-16T08:00:32;15.90;75.40
14585;DHT22;7379;51.506;11.876;2022-10-16T08:03:00;15.90;75.50
14585;DHT22;7379;51.506;11.876;2022-10-16T08:05:27;15.90;75.60
14585;DHT22;7379;51.506;11.876;2022-10-16T08:07:53;16.00;75.40
14585;DHT22;7379;51.506;11.876;2022-10-16T08:10:23;16.00;75.50
14585;DHT22;7379;51.506;11.876;2022-10-16T08:12:50;16.00;75.50
14585;DHT22;7379;51.506;11.876;2022-10-16T08:15:19;16.00;75.90
14585;DHT22;7379;51.506;11.876;2022-10-16T08:17:54;16.00;76.40
14585;DHT22;7379;51.506;11.876;2022-10-16T08:20:21;16.00;77.20
14585;DHT22;7379;51.506;11.876;2022-10-16T08:22:48;16.00;76.50
14585;DHT22;7379;51.506;11.876;2022-10-16T08:25:15;16.00;76.30
14585;DHT22;7379;51.506;11.876;2022-10-16T08:27:42;16.10;76.60
14585;DHT22;7379;51.506;11.876;2022-10-16T08:30:11;16.10;76.30
14585;DHT22;7379;51.506;11.876;2022-10-16T08:32:39;16.10;75.70
14585;DHT22;7379;51.506;11.876;2022-10-16T08:35:07;16.10;76.00
14585;DHT22;7379;51.506;11.876;2022-10-16T08:37:35;16.10;75.50
14585;DHT22;7379;51.506;11.876;2022-10-16T08:40:02;16.10;75.00
14585;DHT22;7379;51.506;11.876;2022-10-16T08:42:40;16.10;75.20
14585;DHT22;7379;51.506;11.876;2022-10-16T08:45:24;16.10;75.90
14585;DHT22;7379;51.506;11.876;2022-10-16T08:48:04;16.10;76.00
14585;DHT22;7379;51.506;11.876;2022-10-16T08:50:33;16.10;75.60
14585;DHT22;7379;51.506;11.876;2022-10-16T08:53:04;16.10;75.20
14585;DHT22;7379;51.506;11.876;2022-10-16T08:55:37;16.20;75.70
14585;DHT22;7379;51.506;11.876;2022-10-16T08:58:12;16.20;75.50
14585;DHT22;7379;51.506;11.876;2022-10-16T09:00:40;16.20;75.80
14585;DHT22;7379;51.506;11.876;2022-10-16T09:03:16;16.20;76.00
14585;DHT22;7379;51.506;11.876;2022-10-16T09:05:54;16.20;75.60
14585;DHT22;7379;51.506;11.876;2022-10-16T09:08:31;16.20;75.90
14585;DHT22;7379;51.506;11.876;2022-10-16T09:11:10;16.20;76.10
14585;DHT22;7379;51.506;11.876;2022-10-16T09:13:46;16.30;76.10
14585;DHT22;7379;51.506;11.876;2022-10-16T09:16:19;16.30;75.80
14585;DHT22;7379;51.506;11.876;2022-10-16T09:18:58;16.40;75.60
14585;DHT22;7379;51.506;11.876;2022-10-16T09:21:29;16.40;75.40
14585;DHT22;7379;51.506;11.876;2022-10-16T09:23:59;16.40;75.10
14585;DHT22;7379;51.506;11.876;2022-10-16T09:26:26;16.50;75.30
14585;DHT22;7379;51.506;11.876;2022-10-16T09:28:53;16.50;75.00
14585;DHT22;7379;51.506;11.876;2022-10-16T09:31:22;16.50;75.50
14585;DHT22;7379;51.506;11.876;2022-10-16T09:33:53;16.60;74.40
14585;DHT22;7379;51.506;11.876;2022-10-16T09:36:23;16.60;74.40
14585;DHT22;7379;51.506;11.876;2022-10-16T09:39:00;16.60;74.30
14585;DHT22;7379;51.506;11.876;2022-10-16T09:41:27;16.60;74.20
14585;DHT22;7379;51.506;11.876;2022-10-16T09:43:56;16.60;74.20
14585;DHT22;7379;51.506;11.876;2022-10-16T09:46:28;16.60;74.10
14585;DHT22;7379;51.506;11.876;2022-10-16T09:48:59;16.60;74.20
14585;DHT22;7379;51.506;11.876;2022-10-16T09:51:28;16.60;74.00
14585;DHT22;7379;51.506;11.876;2022-10-16T09:53:57;16.70;74.00
14585;DHT22;7379;51.506;11.876;2022-10-16T09:56:26;16.70;74.00
14585;DHT22;7379;51.506;11.876;2022-10-16T09:58:58;16.70;73.80
14585;DHT22;7379;51.506;11.876;2022-10-16T10:01:29;16.70;73.80
14585;DHT22;7379;51.506;11.876;2022-10-16T10:03:58;16.80;73.90
14585;DHT22;7379;51.506;11.876;2022-10-16T10:06:30;16.80;73.80
14585;DHT22;7379;51.506;11.876;2022-10-16T10:09:01;16.80;73.80
14585;DHT22;7379;51.506;11.876;2022-10-16T10:11:44;16.80;73.50
14585;DHT22;7379;51.506;11.876;2022-10-16T10:14:30;16.90;73.60
14585;DHT22;7379;51.506;11.876;2022-10-16T10:17:17;16.90;73.60
14585;DHT22;7379;51.506;11.876;2022-10-16T10:19:51;16.90;73.50
14585;DHT22;7379;51.506;11.876;2022-10-16T10:22:29;16.90;73.40
14585;DHT22;7379;51.506;11.876;2022-10-16T10:25:07;17.00;73.40
14585;DHT22;7379;51.506;11.876;2022-10-16T10:27:43;17.00;73.50
14585;DHT22;7379;51.506;11.876;2022-10-16T10:30:18;17.00;73.60
14585;DHT22;7379;51.506;11.876;2022-10-16T10:32:54;17.00;73.50
14585;DHT22;7379;51.506;11.876;2022-10-16T10:35:32;17.00;73.50
14585;DHT22;7379;51.506;11.876;2022-10-16T10:38:16;17.00;73.50
14585;DHT22;7379;51.506;11.876;2022-10-16T10:40:51;17.10;74.20
14585;DHT22;7379;51.506;11.876;2022-10-16T10:43:31;17.10;73.40
14585;DHT22;7379;51.506;11.876;2022-10-16T10:46:05;17.10;73.40
14585;DHT22;7379;51.506;11.876;2022-10-16T10:48:49;17.10;73.40
14585;DHT22;7379;51.506;11.876;2022-10-16T10:51:23;17.10;73.40
14585;DHT22;7379;51.506;11.876;2022-10-16T10:53:58;17.10;73.40
14585;DHT22;7379;51.506;11.876;2022-10-16T10:56:42;17.10;73.50
14585;DHT22;7379;51.506;11.876;2022-10-16T11:02:21;17.20;73.40
14585;DHT22;7379;51.506;11.876;2022-10-16T11:05:21;17.20;73.30
14585;DHT22;7379;51.506;11.876;2022-10-16T11:07:57;17.20;73.30
14585;DHT22;7379;51.506;11.876;2022-10-16T11:10:27;17.20;73.30
14585;DHT22;7379;51.506;11.876;2022-10-16T11:12:58;17.20;73.30
14585;DHT22;7379;51.506;11.876;2022-10-16T11:15:29;17.20;73.40
14585;DHT22;7379;51.506;11.876;2022-10-16T11:18:00;17.20;73.40
14585;DHT22;7379;51.506;11.876;2022-10-16T11:20:32;17.30;73.40
14585;DHT22;7379;51.506;11.876;2022-10-16T11:23:05;17.20;73.40
14585;DHT22;7379;51.506;11.876;2022-10-16T11:25:34;17.20;73.50
14585;DHT22;7379;51.506;11.876;2022-10-16T11:28:03;17.20;73.60
14585;DHT22;7379;51.506;11.876;2022-10-16T11:30:39;17.30;73.60
14585;DHT22;7379;51.506;11.876;2022-10-16T11:33:21;17.30;73.50
14585;DHT22;7379;51.506;11.876;2022-10-16T11:35:53;17.40;73.30
14585;DHT22;7379;51.506;11.876;2022-10-16T11:38:29;17.40;73.30
14585;DHT22;7379;51.506;11.876;2022-10-16T11:41:01;17.40;73.40
14585;DHT22;7379;51.506;11.876;2022-10-16T11:43:34;17.40;73.40
14585;DHT22;7379;51.506;11.876;2022-10-16T11:46:08;17.30;73.30
14585;DHT22;7379;51.506;11.876;2022-10-16T11:48:43;17.40;73.60
14585;DHT22;7379;51.506;11.876;2022-10-16T11:51:18;17.40;73.40
14585;DHT22;7379;51.506;11.876;2022-10-16T11:53:53;17.40;73.40
14585;DHT22;7379;51.506;11.876;2022-10-16T11:56:22;17.50;73.30
14585;DHT22;7379;51.506;11.876;2022-10-16T11:58:54;17.50;73.30
14585;DHT22;7379;51.506;11.876;2022-10-16T12:01:28;17.50;73.20
14585;DHT22;7379;51.506;11.876;2022-10-16T12:04:14;17.50;73.10
14585;DHT22;7379;51.506;11.876;2022-10-16T12:06:46;17.60;73.10
14585;DHT22;7379;51.506;11.876;2022-10-16T12:09:21;17.70;73.00
14585;DHT22;7379;51.506;11.876;2022-10-16T12:11:49;17.70;72.90
14585;DHT22;7379;51.506;11.876;2022-10-16T12:14:22;17.70;72.60
14585;DHT22;7379;51.506;11.876;2022-10-16T12:17:00;17.80;72.30
14585;DHT22;7379;51.506;11.876;2022-10-16T12:19:28;17.80;72.40
14585;DHT22;7379;51.506;11.876;2022-10-16T12:21:57;17.80;72.30
14585;DHT22;7379;51.506;11.876;2022-10-16T12:24:35;17.80;72.20
14585;DHT22;7379;51.506;11.876;2022-10-16T12:27:04;17.80;72.20
14585;DHT22;7379;51.506;11.876;2022-10-16T12:29:36;17.80;72.20
14585;DHT22;7379;51.506;11.876;2022-10-16T12:32:18;17.80;72.30
14585;DHT22;7379;51.506;11.876;2022-10-16T12:34:48;17.80;73.10
14585;DHT22;7379;51.506;11.876;2022-10-16T12:37:21;17.90;71.70
14585;DHT22;7379;51.506;11.876;2022-10-16T12:39:52;18.00;71.40
14585;DHT22;7379;51.506;11.876;2022-10-16T12:42:22;18.00;71.00
14585;DHT22;7379;51.506;11.876;2022-10-16T12:44:49;18.20;70.90
14585;DHT22;7379;51.506;11.876;2022-10-16T12:47:21;18.30;70.60
14585;DHT22;7379;51.506;11.876;2022-10-16T12:49:50;18.30;70.60
14585;DHT22;7379;51.506;11.876;2022-10-16T12:52:27;18.40;70.30
14585;DHT22;7379;51.506;11.876;2022-10-16T12:54:57;18.40;69.90
14585;DHT22;7379;51.506;11.876;2022-10-16T12:57:43;18.40;70.10
14585;DHT22;7379;51.506;11.876;2022-10-16T13:00:22;18.30;70.20
14585;DHT22;7379;51.506;11.876;2022-10-16T13:05:51;18.20;69.80
14585;DHT22;7379;51.506;11.876;2022-10-16T13:08:35;18.20;70.00
14585;DHT22;7379;51.506;11.876;2022-10-16T13:11:13;18.10;70.10
14585;DHT22;7379;51.506;11.876;2022-10-16T13:13:57;18.00;69.90
14585;DHT22;7379;51.506;11.876;2022-10-16T13:16:36;18.00;70.00
14585;DHT22;7379;51.506;11.876;2022-10-16T13:19:18;18.00;70.20
14585;DHT22;7379;51.506;11.876;2022-10-16T13:21:51;17.90;70.30
14585;DHT22;7379;51.506;11.876;2022-10-16T13:24:30;17.90;70.60
14585;DHT22;7379;51.506;11.876;2022-10-16T13:27:07;17.90;70.30
14585;DHT22;7379;51.506;11.876;2022-10-16T13:29:35;17.90;70.40
14585;DHT22;7379;51.506;11.876;2022-10-16T13:32:10;17.80;70.40
14585;DHT22;7379;51.506;11.876;2022-10-16T13:34:44;17.80;70.60
14585;DHT22;7379;51.506;11.876;2022-10-16T13:37:17;17.80;70.90
14585;DHT22;7379;51.506;11.876;2022-10-16T13:39:44;17.80;71.00
14585;DHT22;7379;51.506;11.876;2022-10-16T13:42:24;17.80;70.80
14585;DHT22;7379;51.506;11.876;2022-10-16T13:44:53;17.70;71.10
14585;DHT22;7379;51.506;11.876;2022-10-16T13:47:21;17.70;71.20
14585;DHT22;7379;51.506;11.876;2022-10-16T13:49:59;17.70;71.30
14585;DHT22;7379;51.506;11.876;2022-10-16T13:52:27;17.70;71.30
14585;DHT22;7379;51.506;11.876;2022-10-16T13:54:53;17.70;71.20
14585;DHT22;7379;51.506;11.876;2022-10-16T13:57:24;17.80;71.10
14585;DHT22;7379;51.506;11.876;2022-10-16T13:59:51;17.80;71.20
14585;DHT22;7379;51.506;11.876;2022-10-16T14:02:22;17.80;71.10
14585;DHT22;7379;51.506;11.876;2022-10-16T14:04:52;17.80;71.10
14585;DHT22;7379;51.506;11.876;2022-10-16T14:07:23;17.80;71.10
14585;DHT22;7379;51.506;11.876;2022-10-16T14:09:52;17.90;71.00
14585;DHT22;7379;51.506;11.876;2022-10-16T14:12:19;17.90;70.80
14585;DHT22;7379;51.506;11.876;2022-10-16T14:14:51;17.90;70.80
14585;DHT22;7379;51.506;11.876;2022-10-16T14:17:21;17.90;70.50
14585;DHT22;7379;51.506;11.876;2022-10-16T14:19:50;17.90;70.30
14585;DHT22;7379;51.506;11.876;2022-10-16T14:22:28;17.90;70.30
14585;DHT22;7379;51.506;11.876;2022-10-16T14:24:55;18.00;70.30
14585;DHT22;7379;51.506;11.876;2022-10-16T14:27:29;18.00;70.00
14585;DHT22;7379;51.506;11.876;2022-10-16T14:30:15;18.00;70.00
14585;DHT22;7379;51.506;11.876;2022-10-16T14:32:53;18.10;70.10
14585;DHT22;7379;51.506;11.876;2022-10-16T14:35:29;18.00;70.20
14585;DHT22;7379;51.506;11.876;2022-10-16T14:37:58;18.10;70.00
14585;DHT22;7379;51.506;11.876;2022-10-16T14:40:27;18.10;69.90
14585;DHT22;7379;51.506;11.876;2022-10-16T14:42:54;18.10;70.10
14585;DHT22;7379;51.506;11.876;2022-10-16T14:45:24;18.10;70.00
14585;DHT22;7379;51.506;11.876;2022-10-16T14:47:53;18.10;69.50
14585;DHT22;7379;51.506;11.876;2022-10-16T14:50:21;18.10;69.80
14585;DHT22;7379;51.506;11.876;2022-10-16T14:52:47;18.20;69.40
14585;DHT22;7379;51.506;11.876;2022-10-16T14:55:14;18.20;69.50
14585;DHT22;7379;51.506;11.876;2022-10-16T14:57:43;18.20;69.20
14585;DHT22;7379;51.506;11.876;2022-10-16T15:00:16;18.20;69.10
14585;DHT22;7379;51.506;11.876;2022-10-16T15:02:45;18.20;69.20
14585;DHT22;7379;51.506;11.876;2022-10-16T15:05:21;18.20;69.30
14585;DHT22;7379;51.506;11.876;2022-10-16T15:07:49;18.20;69.30
14585;DHT22;7379;51.506;11.876;2022-10-16T15:10:17;18.10;69.30
14585;DHT22;7379;51.506;11.876;2022-10-16T15:12:44;18.20;69.30
14585;DHT22;7379;51.506;11.876;2022-10-16T15:15:25;18.20;69.70
14585;DHT22;7379;51.506;11.876;2022-10-16T15:17:55;18.20;69.00
14585;DHT22;7379;51.506;11.876;2022-10-16T15:20:23;18.20;69.00
14585;DHT22;7379;51.506;11.876;2022-10-16T15:22:50;18.20;69.00
14585;DHT22;7379;51.506;11.876;2022-10-16T15:25:30;18.10;69.00
14585;DHT22;7379;51.506;11.876;2022-10-16T15:27:58;18.10;69.30
14585;DHT22;7379;51.506;11.876;2022-10-16T15:30:25;18.00;69.60
14585;DHT22;7379;51.506;11.876;2022-10-16T15:32:52;18.00;69.50
14585;DHT22;7379;51.506;11.876;2022-10-16T15:35:20;18.00;69.70
14585;DHT22;7379;51.506;11.876;2022-10-16T15:37:47;18.00;69.50
14585;DHT22;7379;51.506;11.876;2022-10-16T15:40:15;17.90;70.50
14585;DHT22;7379;51.506;11.876;2022-10-16T15:42:42;17.90;70.00
14585;DHT22;7379;51.506;11.876;2022-10-16T15:45:10;17.90;70.00
14585;DHT22;7379;51.506;11.876;2022-10-16T15:47:37;17.90;69.90
14585;DHT22;7379;51.506;11.876;2022-10-16T15:50:05;17.90;70.00
14585;DHT22;7379;51.506;11.876;2022-10-16T15:52:33;17.90;70.20
14585;DHT22;7379;51.506;11.876;2022-10-16T15:55:00;17.90;70.10